createdAt,value
2022-12-13T00:01:56.039Z,97411.38
2022-12-13T00:04:24.909Z,97423.47
2022-12-13T00:06:54.271Z,97416.63
2022-12-13T00:09:22.835Z,97412.47
2022-12-13T00:11:50.577Z,97412.75
2022-12-13T00:14:18.606Z,97414.28
2022-12-13T00:16:49.049Z,97424.59
2022-12-13T00:19:19.155Z,97416.81
2022-12-13T00:21:46.463Z,97430.34
2022-12-13T00:24:14.762Z,97419.13
2022-12-13T00:26:42.780Z,97429.41
2022-12-13T00:29:11.873Z,97426.66
2022-12-13T00:34:27.034Z,97438.66
2022-12-13T00:36:55.216Z,97433.41
2022-12-13T00:39:23.007Z,97439.50
2022-12-13T00:41:50.541Z,97436.16
2022-12-13T00:44:19.919Z,97446.16
2022-12-13T00:46:47.461Z,97453.94
2022-12-13T00:49:14.902Z,97462.88
2022-12-13T00:51:42.128Z,97456.19
2022-12-13T00:54:11.066Z,97455.91
2022-12-13T00:56:38.609Z,97456.91
2022-12-13T00:59:06.300Z,97451.13
2022-12-13T01:01:36.701Z,97454.34
2022-12-13T01:04:07.073Z,97457.63
2022-12-13T01:06:45.962Z,97453.94
2022-12-13T01:09:21.768Z,97455.91
2022-12-13T01:11:50.521Z,97459.47
2022-12-13T01:14:20.050Z,97462.81
2022-12-13T01:16:47.477Z,97462.16
2022-12-13T01:19:15.155Z,97459.63
2022-12-13T01:21:42.405Z,97461.09
2022-12-13T01:24:10.095Z,97454.50
2022-12-13T01:26:37.439Z,97463.72
2022-12-13T01:29:05.894Z,97457.75
2022-12-13T01:31:33.835Z,97463.66
2022-12-13T01:34:10.344Z,97464.25
2022-12-13T01:36:38.690Z,97465.53
2022-12-13T01:39:14.756Z,97466.50
2022-12-13T01:41:45.503Z,97460.69
2022-12-13T01:44:56.564Z,97474.34
2022-12-13T01:47:55.139Z,97459.09
2022-12-13T01:50:32.785Z,97465.22
2022-12-13T01:53:01.359Z,97457.97
2022-12-13T01:55:41.843Z,97470.16
2022-12-13T01:58:10.162Z,97465.78
2022-12-13T02:00:38.145Z,97470.88
2022-12-13T02:03:09.514Z,97462.31
2022-12-13T02:06:08.125Z,97472.44
2022-12-13T02:08:37.104Z,97466.44
2022-12-13T02:11:06.718Z,97472.88
2022-12-13T02:13:33.930Z,97468.47
2022-12-13T02:16:29.337Z,97476.63
2022-12-13T02:19:31.741Z,97479.56
2022-12-13T02:22:16.841Z,97471.09
2022-12-13T02:25:10.589Z,97478.72
2022-12-13T02:28:03.144Z,97481.41
2022-12-13T02:31:17.754Z,97475.63
2022-12-13T02:34:09.931Z,97478.63
2022-12-13T02:36:58.668Z,97476.94
2022-12-13T02:39:39.517Z,97472.09
2022-12-13T02:42:27.899Z,97472.16
2022-12-13T02:45:17.206Z,97469.44
2022-12-13T02:47:52.443Z,97479.78
2022-12-13T02:50:21.956Z,97467.06
2022-12-13T02:52:51.486Z,97478.00
2022-12-13T02:55:19.109Z,97477.84
2022-12-13T02:57:46.652Z,97472.16
2022-12-13T03:00:21.142Z,97474.78
2022-12-13T03:03:00.624Z,97472.00
2022-12-13T03:06:16.582Z,97477.38
2022-12-13T03:08:58.401Z,97482.59
2022-12-13T03:12:14.575Z,97475.63
2022-12-13T03:15:01.612Z,97483.44
2022-12-13T03:17:43.934Z,97482.00
2022-12-13T03:20:22.931Z,97480.66
2022-12-13T03:22:52.555Z,97488.81
2022-12-13T03:25:31.505Z,97487.16
2022-12-13T03:28:02.437Z,97486.47
2022-12-13T03:30:33.089Z,97483.78
2022-12-13T03:33:01.468Z,97498.00
2022-12-13T03:35:34.122Z,97486.44
2022-12-13T03:38:22.576Z,97492.44
2022-12-13T03:40:55.435Z,97496.34
2022-12-13T03:43:23.737Z,97496.34
2022-12-13T03:45:54.383Z,97503.97
2022-12-13T03:48:23.933Z,97496.69
2022-12-13T03:50:54.276Z,97502.97
2022-12-13T03:53:32.642Z,97498.31
2022-12-13T03:56:06.990Z,97506.31
2022-12-13T03:58:37.920Z,97502.00
2022-12-13T04:01:09.928Z,97503.41
2022-12-13T04:03:40.361Z,97501.78
2022-12-13T04:06:08.638Z,97502.75
2022-12-13T04:08:37.859Z,97498.66
2022-12-13T04:11:25.359Z,97500.31
2022-12-13T04:13:54.655Z,97506.31
2022-12-13T04:16:23.752Z,97502.09
2022-12-13T04:18:51.453Z,97499.69
2022-12-13T04:21:18.700Z,97513.13
2022-12-13T04:23:46.250Z,97507.78
2022-12-13T04:26:13.710Z,97507.97
2022-12-13T04:28:41.289Z,97512.84
2022-12-13T04:31:08.789Z,97509.50
2022-12-13T04:33:36.687Z,97516.34
2022-12-13T04:36:04.526Z,97513.13
2022-12-13T04:38:32.004Z,97506.09
2022-12-13T04:41:13.493Z,97509.72
2022-12-13T04:43:40.940Z,97513.88
2022-12-13T04:46:08.641Z,97516.66
2022-12-13T04:48:36.110Z,97509.94
2022-12-13T04:51:03.417Z,97507.41
2022-12-13T04:53:31.075Z,97508.25
2022-12-13T04:55:59.701Z,97519.25
2022-12-13T04:58:28.334Z,97513.88
2022-12-13T05:00:55.816Z,97520.75
2022-12-13T05:03:24.133Z,97514.72
2022-12-13T05:05:51.453Z,97514.97
2022-12-13T05:08:19.220Z,97519.25
2022-12-13T05:10:46.484Z,97514.56
2022-12-13T05:13:14.053Z,97525.22
2022-12-13T05:15:41.287Z,97520.09
2022-12-13T05:18:11.026Z,97520.56
2022-12-13T05:20:39.815Z,97519.25
2022-12-13T05:23:07.783Z,97515.88
2022-12-13T05:25:37.188Z,97515.25
2022-12-13T05:28:09.036Z,97517.66
2022-12-13T05:30:53.736Z,97523.53
2022-12-13T05:33:22.429Z,97516.75
2022-12-13T05:35:50.017Z,97529.72
2022-12-13T05:38:18.294Z,97518.59
2022-12-13T05:40:45.566Z,97524.44
2022-12-13T05:43:21.463Z,97517.34
2022-12-13T05:45:50.737Z,97520.75
2022-12-13T05:48:24.812Z,97510.88
2022-12-13T05:51:09.971Z,97526.16
2022-12-13T05:53:41.537Z,97517.75
2022-12-13T05:56:11.662Z,97523.34
2022-12-13T05:58:41.399Z,97525.16
2022-12-13T06:01:13.424Z,97517.66
2022-12-13T06:03:42.400Z,97527.06
2022-12-13T06:06:12.643Z,97532.09
2022-12-13T06:08:40.725Z,97537.03
2022-12-13T06:11:09.916Z,97530.50
2022-12-13T06:13:44.131Z,97542.59
2022-12-13T06:16:22.237Z,97537.22
2022-12-13T06:19:00.978Z,97533.81
2022-12-13T06:21:43.833Z,97538.34
2022-12-13T06:24:19.997Z,97545.94
2022-12-13T06:26:47.444Z,97540.97
2022-12-13T06:29:23.053Z,97542.66
2022-12-13T06:32:02.825Z,97552.78
2022-12-13T06:34:34.661Z,97551.84
2022-12-13T06:37:07.184Z,97550.13
2022-12-13T06:39:35.372Z,97553.16
2022-12-13T06:42:06.633Z,97557.84
2022-12-13T06:44:35.426Z,97561.09
2022-12-13T06:47:11.352Z,97561.09
2022-12-13T06:49:43.960Z,97560.78
2022-12-13T06:52:13.548Z,97562.72
2022-12-13T06:54:42.980Z,97571.06
2022-12-13T06:57:12.216Z,97571.06
2022-12-13T06:59:40.187Z,97573.53
2022-12-13T07:02:24.342Z,97581.25
2022-12-13T07:04:54.756Z,97577.91
2022-12-13T07:07:23.320Z,97581.16
2022-12-13T07:09:50.831Z,97579.47
2022-12-13T07:12:19.344Z,97582.44
2022-12-13T07:14:46.950Z,97588.41
2022-12-13T07:17:32.407Z,97589.09
2022-12-13T07:20:08.560Z,97590.59
2022-12-13T07:22:44.798Z,97602.88
2022-12-13T07:25:27.636Z,97595.38
2022-12-13T07:28:03.001Z,97589.03
2022-12-13T07:30:41.056Z,97598.84
2022-12-13T07:33:09.938Z,97598.16
2022-12-13T07:35:37.877Z,97598.06
2022-12-13T07:38:10.886Z,97607.41
2022-12-13T07:40:40.591Z,97604.47
2022-12-13T07:43:09.748Z,97609.38
2022-12-13T07:45:37.191Z,97603.34
2022-12-13T07:48:06.415Z,97622.91
2022-12-13T07:50:37.556Z,97621.41
2022-12-13T07:53:08.297Z,97611.91
2022-12-13T07:55:37.138Z,97611.13
2022-12-13T07:58:10.283Z,97618.31
2022-12-13T08:00:41.366Z,97613.25
2022-12-13T08:03:24.170Z,97624.34
2022-12-13T08:06:11.304Z,97622.88
2022-12-13T08:08:39.614Z,97617.13
2022-12-13T08:11:13.607Z,97620.13
2022-12-13T08:13:41.555Z,97633.94
2022-12-13T08:16:27.657Z,97630.53
2022-12-13T08:19:01.951Z,97625.34
2022-12-13T08:21:58.281Z,97629.09
2022-12-13T08:24:30.822Z,97638.38
2022-12-13T08:27:02.051Z,97632.81
2022-12-13T08:29:33.967Z,97629.03
2022-12-13T08:32:12.043Z,97635.22
2022-12-13T08:34:42.097Z,97641.31
2022-12-13T08:37:09.945Z,97633.09
2022-12-13T08:39:39.716Z,97634.00
2022-12-13T08:42:19.551Z,97631.44
2022-12-13T08:44:50.871Z,97657.31
2022-12-13T08:47:26.379Z,97648.19
2022-12-13T08:50:02.336Z,97658.44
2022-12-13T08:52:39.801Z,97661.25
2022-12-13T08:55:14.613Z,97659.44
2022-12-13T08:57:43.892Z,97650.13
2022-12-13T09:00:16.155Z,97651.72
2022-12-13T09:02:44.253Z,97644.09
2022-12-13T09:05:13.277Z,97652.81
2022-12-13T09:08:02.831Z,97648.13
2022-12-13T09:10:31.072Z,97658.56
2022-12-13T09:13:11.505Z,97652.25
2022-12-13T09:15:45.866Z,97648.81
2022-12-13T09:18:15.117Z,97656.31
2022-12-13T09:20:43.032Z,97648.44
2022-12-13T09:23:22.932Z,97647.03
2022-12-13T09:25:56.289Z,97648.13
2022-12-13T09:28:37.042Z,97653.78
2022-12-13T09:31:19.243Z,97652.75
2022-12-13T09:33:47.094Z,97654.84
2022-12-13T09:36:19.241Z,97646.00
2022-12-13T09:38:47.405Z,97647.00
2022-12-13T09:42:00.985Z,97651.16
2022-12-13T09:44:43.937Z,97652.91
2022-12-13T09:47:34.983Z,97647.00
2022-12-13T09:50:14.775Z,97644.28
2022-12-13T09:52:46.215Z,97655.38
2022-12-13T09:55:25.624Z,97651.41
2022-12-13T09:57:53.403Z,97648.69
2022-12-13T10:00:25.943Z,97646.72
2022-12-13T10:02:58.954Z,97652.47
2022-12-13T10:05:39.565Z,97648.81
2022-12-13T10:08:16.729Z,97652.97
2022-12-13T10:10:45.446Z,97652.59
2022-12-13T10:13:28.175Z,97653.75
2022-12-13T10:16:04.783Z,97650.59
2022-12-13T10:18:38.668Z,97644.38
2022-12-13T10:21:40.597Z,97649.69
2022-12-13T10:24:32.864Z,97642.16
2022-12-13T10:27:17.797Z,97641.19
2022-12-13T10:30:12.807Z,97641.47
2022-12-13T10:33:06.169Z,97641.78
2022-12-13T10:35:36.865Z,97638.84
2022-12-13T10:38:32.008Z,97641.47
2022-12-13T10:41:00.953Z,97639.38
2022-12-13T10:43:32.976Z,97635.38
2022-12-13T10:46:02.202Z,97627.66
2022-12-13T10:48:50.644Z,97630.72
2022-12-13T10:51:22.281Z,97631.94
2022-12-13T10:54:00.813Z,97629.16
2022-12-13T10:56:47.754Z,97629.97
2022-12-13T10:59:18.224Z,97635.25
2022-12-13T11:01:45.547Z,97628.66
2022-12-13T11:04:29.726Z,97633.25
2022-12-13T11:07:00.528Z,97630.47
2022-12-13T11:09:38.642Z,97627.94
2022-12-13T11:12:17.956Z,97618.16
2022-12-13T11:15:01.939Z,97626.19
2022-12-13T11:17:34.659Z,97623.00
2022-12-13T11:20:30.188Z,97624.97
2022-12-13T11:23:39.373Z,97609.41
2022-12-13T11:26:14.816Z,97618.25
2022-12-13T11:29:20.230Z,97609.75
2022-12-13T11:32:12.761Z,97614.34
2022-12-13T11:35:16.540Z,97602.63
2022-12-13T11:38:30.575Z,97601.53
2022-12-13T11:41:11.413Z,97601.22
2022-12-13T11:44:04.155Z,97609.38
2022-12-13T11:46:55.980Z,97603.28
2022-12-13T11:49:38.816Z,97616.25
2022-12-13T11:52:18.224Z,97614.59
2022-12-13T11:54:57.489Z,97617.38
2022-12-13T11:57:44.720Z,97618.34
2022-12-13T12:00:44.480Z,97617.94
2022-12-13T12:03:40.068Z,97609.44
2022-12-13T12:06:21.582Z,97624.22
2022-12-13T12:08:58.913Z,97613.03
2022-12-13T12:12:16.556Z,97618.44
2022-12-13T12:15:17.257Z,97620.25
2022-12-13T12:17:45.358Z,97618.38
2022-12-13T12:20:23.909Z,97615.53
2022-12-13T12:23:25.686Z,97616.53
2022-12-13T12:26:09.002Z,97612.41
2022-12-13T12:29:39.794Z,97615.06
2022-12-13T12:32:19.278Z,97606.34
2022-12-13T12:35:55.221Z,97618.88
2022-12-13T12:38:44.425Z,97618.38
2022-12-13T12:41:45.236Z,97622.41
2022-12-13T12:44:39.849Z,97622.88
2022-12-13T12:48:46.292Z,97609.94
2022-12-13T12:50:37.310Z,97609.00
2022-12-13T12:53:31.723Z,97607.81
2022-12-13T12:56:39.403Z,97611.88
2022-12-13T12:59:27.743Z,97612.13
2022-12-13T13:02:14.648Z,97621.88
2022-12-13T13:04:57.361Z,97617.06
2022-12-13T13:07:40.377Z,97608.69
2022-12-13T13:10:16.760Z,97613.81
2022-12-13T13:13:12.490Z,97617.25
2022-12-13T13:15:40.688Z,97621.31
2022-12-13T13:18:47.523Z,97625.13
2022-12-13T13:21:24.004Z,97618.31
2022-12-13T13:24:09.223Z,97620.22
2022-12-13T13:26:48.335Z,97624.00
2022-12-13T13:29:27.194Z,97626.56
2022-12-13T13:32:29.534Z,97620.47
2022-12-13T13:35:43.547Z,97624.34
2022-12-13T13:38:17.004Z,97629.50
2022-12-13T13:40:44.254Z,97622.34
2022-12-13T13:43:11.789Z,97624.75
2022-12-13T13:46:03.254Z,97614.09
2022-12-13T13:49:04.535Z,97622.41
2022-12-13T13:55:12.971Z,97624.97
2022-12-13T13:58:11.117Z,97628.31
2022-12-13T14:01:23.008Z,97637.69
2022-12-13T14:04:09.075Z,97639.94
2022-12-13T14:07:09.600Z,97640.41
2022-12-13T14:10:23.675Z,97642.19
2022-12-13T14:13:23.571Z,97650.81
2022-12-13T14:16:41.663Z,97648.50
2022-12-13T14:19:42.819Z,97654.22
2022-12-13T14:22:50.177Z,97654.81
2022-12-13T14:26:03.677Z,97655.16
2022-12-13T14:28:52.026Z,97660.00
2022-12-13T14:31:30.937Z,97660.03
2022-12-13T14:34:01.580Z,97658.16
2022-12-13T14:36:35.412Z,97665.47
2022-12-13T14:39:16.323Z,97655.38
2022-12-13T14:41:56.305Z,97661.66
2022-12-13T14:44:34.495Z,97678.56
2022-12-13T14:47:07.543Z,97666.56
2022-12-13T14:49:41.764Z,97671.75
2022-12-13T14:52:26.196Z,97667.94
2022-12-13T14:55:04.777Z,97673.59
2022-12-13T14:57:35.195Z,97665.13
2022-12-13T15:00:28.734Z,97658.41
2022-12-13T15:03:01.469Z,97683.53
2022-12-13T15:05:44.305Z,97681.84
2022-12-13T15:08:19.638Z,97680.31
2022-12-13T15:10:52.176Z,97677.06
2022-12-13T15:13:53.000Z,97684.28
2022-12-13T15:16:28.633Z,97688.63
2022-12-13T15:19:30.943Z,97683.19
2022-12-13T15:22:13.144Z,97692.00
2022-12-13T15:24:47.119Z,97685.78
2022-12-13T15:27:17.467Z,97695.84
2022-12-13T15:29:47.556Z,97697.91
2022-12-13T15:32:19.289Z,97698.03
2022-12-13T15:34:47.800Z,97699.84
2022-12-13T15:37:29.136Z,97710.34
2022-12-13T15:40:08.864Z,97701.00
2022-12-13T15:42:43.704Z,97696.06
2022-12-13T15:45:31.778Z,97700.06
2022-12-13T15:48:05.558Z,97688.88
2022-12-13T15:50:45.513Z,97696.09
2022-12-13T15:53:28.040Z,97689.81
2022-12-13T15:55:56.012Z,97693.84
2022-12-13T15:58:33.698Z,97690.38
2022-12-13T16:01:05.921Z,97698.81
2022-12-13T16:03:44.724Z,97698.59
2022-12-13T16:06:23.793Z,97691.75
2022-12-13T16:08:57.028Z,97694.47
2022-12-13T16:12:07.293Z,97693.63
2022-12-13T16:14:48.900Z,97693.38
2022-12-13T16:17:27.429Z,97690.88
2022-12-13T16:20:02.115Z,97689.09
2022-12-13T16:22:33.562Z,97699.47
2022-12-13T16:25:00.752Z,97693.66
2022-12-13T16:27:28.512Z,97694.31
2022-12-13T16:29:55.953Z,97693.00
2022-12-13T16:32:23.629Z,97697.09
2022-12-13T16:34:50.940Z,97703.94
2022-12-13T16:37:26.510Z,97693.97
2022-12-13T16:39:55.371Z,97692.28
2022-12-13T16:42:27.053Z,97692.44
2022-12-13T16:45:40.564Z,97693.84
2022-12-13T16:47:49.513Z,97701.47
2022-12-13T16:50:21.577Z,97695.44
2022-12-13T16:52:49.776Z,97692.78
2022-12-13T16:55:17.367Z,97689.50
2022-12-13T16:57:55.522Z,97692.47
2022-12-13T17:00:23.102Z,97694.38
2022-12-13T17:02:51.121Z,97696.81
2022-12-13T17:05:18.820Z,97705.81
2022-12-13T17:07:46.775Z,97702.81
2022-12-13T17:10:14.804Z,97705.63
2022-12-13T17:12:42.628Z,97704.09
2022-12-13T17:15:11.821Z,97703.25
2022-12-13T17:17:43.183Z,97711.88
2022-12-13T17:20:17.287Z,97715.47
2022-12-13T17:22:45.791Z,97722.47
2022-12-13T17:25:14.338Z,97724.22
2022-12-13T17:27:42.654Z,97728.56
2022-12-13T17:30:15.895Z,97725.91
2022-12-13T17:32:44.268Z,97732.34
2022-12-13T17:35:17.918Z,97721.50
2022-12-13T17:37:46.306Z,97722.34
2022-12-13T17:40:13.678Z,97732.63
2022-12-13T17:42:41.261Z,97741.06
2022-12-13T17:45:09.001Z,97737.75
2022-12-13T17:47:36.740Z,97736.75
2022-12-13T17:50:04.383Z,97748.09
2022-12-13T17:52:31.906Z,97735.56
2022-12-13T17:55:01.006Z,97738.16
2022-12-13T17:57:28.552Z,97728.81
2022-12-13T17:59:55.781Z,97732.13
2022-12-13T18:02:23.416Z,97736.19
2022-12-13T18:04:50.869Z,97731.94
2022-12-13T18:07:19.324Z,97741.47
2022-12-13T18:09:46.601Z,97732.19
2022-12-13T18:12:15.735Z,97736.25
2022-12-13T18:14:43.703Z,97736.22
2022-12-13T18:17:11.228Z,97738.81
2022-12-13T18:19:38.407Z,97743.06
2022-12-13T18:22:05.945Z,97737.94
2022-12-13T18:24:33.152Z,97736.56
2022-12-13T18:27:00.739Z,97739.81
2022-12-13T18:29:28.012Z,97742.00
2022-12-13T18:31:55.694Z,97746.31
2022-12-13T18:34:22.946Z,97743.50
2022-12-13T18:36:50.509Z,97735.75
2022-12-13T18:39:18.085Z,97742.63
2022-12-13T18:41:45.683Z,97736.66
2022-12-13T18:44:13.646Z,97746.81
2022-12-13T18:46:45.762Z,97745.19
2022-12-13T18:49:13.493Z,97746.97
2022-12-13T18:51:41.017Z,97736.38
2022-12-13T18:54:08.288Z,97733.13
2022-12-13T18:56:35.834Z,97738.03
2022-12-13T18:59:03.113Z,97735.38
2022-12-13T19:01:31.343Z,97728.56
2022-12-13T19:03:58.772Z,97733.72
2022-12-13T19:06:28.326Z,97734.53
2022-12-13T19:08:58.150Z,97731.25
2022-12-13T19:11:28.100Z,97724.28
2022-12-13T19:13:55.595Z,97726.88
2022-12-13T19:16:24.859Z,97731.97
2022-12-13T19:18:52.611Z,97722.13
2022-12-13T19:21:22.456Z,97716.94
2022-12-13T19:23:57.042Z,97717.06
2022-12-13T19:26:29.470Z,97717.94
2022-12-13T19:28:59.055Z,97723.88
2022-12-13T19:31:31.879Z,97721.44
2022-12-13T19:34:03.693Z,97727.50
2022-12-13T19:36:32.832Z,97725.75
2022-12-13T19:39:01.089Z,97726.09
2022-12-13T19:41:29.712Z,97734.50
2022-12-13T19:43:57.077Z,97737.34
2022-12-13T19:46:24.857Z,97739.94
2022-12-13T19:48:52.413Z,97740.75
2022-12-13T19:51:20.070Z,97740.94
2022-12-13T19:53:47.467Z,97736.63
2022-12-13T19:56:19.430Z,97746.91
2022-12-13T19:58:49.221Z,97742.69
2022-12-13T20:01:18.157Z,97742.72
2022-12-13T20:03:46.782Z,97741.97
2022-12-13T20:06:22.288Z,97745.53
2022-12-13T20:08:50.937Z,97753.31
2022-12-13T20:11:23.129Z,97743.88
2022-12-13T20:13:55.032Z,97741.28
2022-12-13T20:16:26.000Z,97737.75
2022-12-13T20:18:59.160Z,97742.97
2022-12-13T20:21:28.770Z,97748.09
2022-12-13T20:23:57.872Z,97750.88
2022-12-13T20:26:30.212Z,97747.50
2022-12-13T20:28:58.022Z,97755.97
2022-12-13T20:31:32.746Z,97745.84
2022-12-13T20:34:04.715Z,97745.94
2022-12-13T20:36:32.933Z,97749.25
2022-12-13T20:39:02.594Z,97753.47
2022-12-13T20:41:34.213Z,97750.09
2022-12-13T20:44:04.508Z,97753.47
2022-12-13T20:46:33.012Z,97749.25
2022-12-13T20:49:04.095Z,97751.75
2022-12-13T20:51:33.531Z,97745.63
2022-12-13T20:54:01.095Z,97748.09
2022-12-13T20:56:34.485Z,97742.97
2022-12-13T20:59:04.509Z,97736.94
2022-12-13T21:01:37.917Z,97737.63
2022-12-13T21:04:07.825Z,97734.19
2022-12-13T21:06:40.705Z,97730.81
2022-12-13T21:09:10.895Z,97739.47
2022-12-13T21:11:47.924Z,97734.44
2022-12-13T21:14:21.194Z,97732.63
2022-12-13T21:16:57.994Z,97732.78
2022-12-13T21:19:39.070Z,97733.75
2022-12-13T21:22:07.984Z,97736.34
2022-12-13T21:24:35.309Z,97724.75
2022-12-13T21:27:02.873Z,97733.94
2022-12-13T21:29:30.063Z,97728.97
2022-12-13T21:31:57.696Z,97728.97
2022-12-13T21:34:25.095Z,97735.78
2022-12-13T21:36:53.441Z,97737.47
2022-12-13T21:39:24.838Z,97735.00
2022-12-13T21:41:52.581Z,97724.81
2022-12-13T21:44:20.596Z,97729.91
2022-12-13T21:49:36.488Z,97722.38
2022-12-13T21:52:04.198Z,97728.97
2022-12-13T21:54:31.539Z,97719.53
2022-12-13T21:57:17.739Z,97718.31
2022-12-13T21:59:46.004Z,97724.66
2022-12-13T22:02:18.492Z,97719.72
2022-12-13T22:04:55.776Z,97723.94
2022-12-13T22:07:32.795Z,97719.69
2022-12-13T22:10:02.205Z,97717.88
2022-12-13T22:12:39.718Z,97719.84
2022-12-13T22:15:12.059Z,97712.25
2022-12-13T22:17:41.271Z,97715.19
2022-12-13T22:20:13.766Z,97715.31
2022-12-13T22:22:44.233Z,97725.41
2022-12-13T22:25:11.722Z,97721.25
2022-12-13T22:27:39.345Z,97727.19
2022-12-13T22:30:07.659Z,97726.41
2022-12-13T22:32:35.324Z,97724.78
2022-12-13T22:35:02.661Z,97723.94
2022-12-13T22:37:30.396Z,97723.09
2022-12-13T22:39:57.619Z,97725.72
2022-12-13T22:42:25.209Z,97727.34
2022-12-13T22:44:52.405Z,97718.03
2022-12-13T22:47:19.853Z,97717.19
2022-12-13T22:49:48.702Z,97718.72
2022-12-13T22:52:17.332Z,97718.81
2022-12-13T22:54:44.550Z,97705.25
2022-12-13T22:57:12.146Z,97709.53
2022-12-13T22:59:39.336Z,97703.69
2022-12-13T23:02:07.774Z,97706.09
2022-12-13T23:04:35.163Z,97700.09
2022-12-13T23:07:02.678Z,97694.97
2022-12-13T23:09:29.874Z,97702.31
2022-12-13T23:12:16.139Z,97696.47
2022-12-13T23:14:43.362Z,97700.59
2022-12-13T23:17:10.907Z,97697.06
2022-12-13T23:19:50.827Z,97681.53
2022-12-13T23:22:23.799Z,97685.81
2022-12-13T23:24:53.085Z,97676.50
2022-12-13T23:27:24.854Z,97685.72
2022-12-13T23:29:52.231Z,97679.56
2022-12-13T23:32:19.804Z,97680.41
2022-12-13T23:34:47.077Z,97678.53
2022-12-13T23:37:14.593Z,97670.84
2022-12-13T23:39:41.790Z,97672.41
2022-12-13T23:42:09.699Z,97669.06
2022-12-13T23:44:36.940Z,97662.25
2022-12-13T23:47:04.661Z,97658.91
2022-12-13T23:49:32.412Z,97657.38
2022-12-13T23:51:59.867Z,97654.19
2022-12-13T23:54:27.228Z,97654.19
2022-12-13T23:56:54.771Z,97655.88
2022-12-13T23:59:21.990Z,97655.03
